createdAt,value
2022-09-13T00:01:33.180Z,54200.97
2022-09-13T00:04:01.792Z,54202.94
2022-09-13T00:06:30.122Z,54204.94
2022-09-13T00:08:58.550Z,54198.97
2022-09-13T00:11:29.346Z,54270.56
2022-09-13T00:13:59.439Z,54280.50
2022-09-13T00:16:29.958Z,54250.69
2022-09-13T00:19:01.037Z,54310.34
2022-09-13T00:21:29.545Z,54371.97
2022-09-13T00:23:57.975Z,54381.91
2022-09-13T00:26:28.321Z,54413.72
2022-09-13T00:28:58.738Z,54493.28
2022-09-13T00:31:28.734Z,54439.59
2022-09-13T00:33:58.598Z,54413.72
2022-09-13T00:36:28.509Z,54391.84
2022-09-13T00:38:56.805Z,54346.13
2022-09-13T00:41:25.337Z,54228.81
2022-09-13T00:43:56.767Z,54198.97
2022-09-13T00:46:33.942Z,54004.09
2022-09-13T00:49:11.640Z,53934.50
2022-09-13T00:51:45.021Z,53912.66
2022-09-13T00:54:15.921Z,53821.19
2022-09-13T00:56:48.682Z,53785.41
2022-09-13T00:59:22.797Z,53745.63
2022-09-13T01:01:55.616Z,53689.97
2022-09-13T01:04:27.152Z,53717.78
2022-09-13T01:07:01.486Z,53693.94
2022-09-13T01:09:36.908Z,53646.22
2022-09-13T01:12:10.281Z,53594.53
2022-09-13T01:14:39.290Z,53622.38
2022-09-13T01:17:09.838Z,53586.56
2022-09-13T01:19:38.600Z,53590.56
2022-09-13T01:22:34.355Z,53552.78
2022-09-13T01:25:51.765Z,53538.88
2022-09-13T01:28:42.747Z,53552.78
2022-09-13T01:31:21.934Z,53522.97
2022-09-13T01:34:04.422Z,53520.97
2022-09-13T01:36:51.595Z,53530.91
2022-09-13T01:39:35.054Z,53522.97
2022-09-13T01:42:16.784Z,53526.94
2022-09-13T01:45:01.419Z,53542.84
2022-09-13T01:47:36.214Z,53532.91
2022-09-13T01:50:14.046Z,53540.84
2022-09-13T01:52:51.784Z,53503.06
2022-09-13T01:55:28.503Z,53505.06
2022-09-13T01:58:04.767Z,53459.34
2022-09-13T02:00:40.950Z,53503.06
2022-09-13T02:03:15.487Z,53503.06
2022-09-13T02:05:49.059Z,53491.16
2022-09-13T02:08:21.359Z,53509.03
2022-09-13T02:10:55.148Z,53501.09
2022-09-13T02:13:29.752Z,53485.19
2022-09-13T02:16:02.382Z,53491.16
2022-09-13T02:18:37.157Z,53475.25
2022-09-13T02:21:11.871Z,53497.13
2022-09-13T02:23:45.795Z,53495.13
2022-09-13T02:26:16.467Z,53479.22
2022-09-13T02:28:52.875Z,53493.13
2022-09-13T02:31:29.727Z,53475.25
2022-09-13T02:34:04.682Z,53477.22
2022-09-13T02:36:36.781Z,53455.38
2022-09-13T02:39:08.754Z,53481.22
2022-09-13T02:41:44.493Z,53473.25
2022-09-13T02:44:17.663Z,53479.22
2022-09-13T02:47:01.086Z,53471.28
2022-09-13T02:49:35.670Z,53481.22
2022-09-13T02:52:10.864Z,53469.28
2022-09-13T02:54:43.151Z,53475.25
2022-09-13T02:57:19.930Z,53461.31
2022-09-13T02:59:49.634Z,53503.06
2022-09-13T03:02:21.753Z,53493.13
2022-09-13T03:04:52.804Z,53491.16
2022-09-13T03:07:21.566Z,53542.84
2022-09-13T03:09:53.656Z,53524.94
2022-09-13T03:12:46.030Z,53558.75
2022-09-13T03:15:26.006Z,53590.56
2022-09-13T03:18:01.142Z,53614.41
2022-09-13T03:20:43.192Z,53594.53
2022-09-13T03:23:28.834Z,53604.47
2022-09-13T03:26:37.081Z,53574.66
2022-09-13T03:29:15.485Z,53626.34
2022-09-13T03:31:51.514Z,53596.53
2022-09-13T03:34:30.585Z,53626.34
2022-09-13T03:37:07.922Z,53610.44
2022-09-13T03:39:43.465Z,53606.47
2022-09-13T03:42:20.350Z,53594.53
2022-09-13T03:44:51.706Z,53646.22
2022-09-13T03:47:22.553Z,53602.47
2022-09-13T03:49:52.622Z,53614.41
2022-09-13T03:52:22.714Z,53620.38
2022-09-13T03:54:51.253Z,53624.34
2022-09-13T03:57:22.236Z,53632.31
2022-09-13T03:59:52.611Z,53642.25
2022-09-13T04:02:22.368Z,53614.41
2022-09-13T04:04:51.058Z,53612.44
2022-09-13T04:07:21.290Z,53608.44
2022-09-13T04:09:51.323Z,53628.31
2022-09-13T04:12:20.297Z,53606.47
2022-09-13T04:14:49.144Z,53598.50
2022-09-13T04:17:17.809Z,53624.34
2022-09-13T04:19:47.304Z,53624.34
2022-09-13T04:22:16.062Z,53610.44
2022-09-13T04:24:44.568Z,53638.28
2022-09-13T04:27:14.696Z,53638.28
2022-09-13T04:29:43.043Z,53626.34
2022-09-13T04:32:11.667Z,53626.34
2022-09-13T04:34:40.717Z,53576.63
2022-09-13T04:37:10.149Z,53578.63
2022-09-13T04:39:38.556Z,53566.69
2022-09-13T04:42:07.863Z,53556.75
2022-09-13T04:44:37.560Z,53562.72
2022-09-13T04:47:08.160Z,53548.81
2022-09-13T04:49:36.543Z,53530.91
2022-09-13T04:52:05.052Z,53524.94
2022-09-13T04:54:33.838Z,53517.00
2022-09-13T04:57:02.279Z,53524.94
2022-09-13T04:59:30.752Z,53522.97
2022-09-13T05:02:00.674Z,53505.06
2022-09-13T05:04:29.094Z,53501.09
2022-09-13T05:06:59.109Z,53499.09
2022-09-13T05:09:27.589Z,53491.16
2022-09-13T05:11:56.044Z,53507.06
2022-09-13T05:14:24.568Z,53522.97
2022-09-13T05:16:52.904Z,53520.97
2022-09-13T05:19:23.139Z,53554.78
2022-09-13T05:21:51.591Z,53558.75
2022-09-13T05:24:19.901Z,53574.66
2022-09-13T05:26:48.284Z,53538.88
2022-09-13T05:29:16.822Z,53566.69
2022-09-13T05:31:45.337Z,53594.53
2022-09-13T05:34:16.570Z,53590.56
2022-09-13T05:36:48.438Z,53604.47
2022-09-13T05:39:36.503Z,53608.44
2022-09-13T05:42:10.370Z,53644.22
2022-09-13T05:44:38.696Z,53682.00
2022-09-13T05:47:07.457Z,53686.00
2022-09-13T05:49:45.988Z,53666.09
2022-09-13T05:52:25.800Z,53658.16
2022-09-13T05:54:54.200Z,53666.09
2022-09-13T05:57:22.540Z,53711.84
2022-09-13T05:59:51.240Z,53697.91
2022-09-13T06:02:19.860Z,53684.00
2022-09-13T06:04:48.513Z,53697.91
2022-09-13T06:07:16.975Z,53707.84
2022-09-13T06:09:56.102Z,53717.78
2022-09-13T06:12:24.977Z,53676.03
2022-09-13T06:14:53.645Z,53719.78
2022-09-13T06:17:24.817Z,53725.75
2022-09-13T06:20:04.248Z,53658.16
2022-09-13T06:22:35.371Z,53634.28
2022-09-13T06:25:05.999Z,53642.25
2022-09-13T06:27:34.478Z,53610.44
2022-09-13T06:30:02.835Z,53620.38
2022-09-13T06:32:31.331Z,53542.84
2022-09-13T06:35:00.485Z,53560.72
2022-09-13T06:37:28.974Z,53538.88
2022-09-13T06:39:57.824Z,53544.81
2022-09-13T06:42:27.812Z,53517.00
2022-09-13T06:44:56.351Z,53534.88
2022-09-13T06:47:25.887Z,53554.78
2022-09-13T06:49:54.567Z,53534.88
2022-09-13T06:52:23.026Z,53546.81
2022-09-13T06:54:51.804Z,53524.94
2022-09-13T06:57:20.174Z,53530.91
2022-09-13T06:59:49.975Z,53505.06
2022-09-13T07:02:18.967Z,53483.19
2022-09-13T07:04:47.490Z,53457.34
2022-09-13T07:07:16.036Z,53473.25
2022-09-13T07:09:44.810Z,53475.25
2022-09-13T07:12:15.627Z,53463.31
2022-09-13T07:14:47.110Z,53431.50
2022-09-13T07:17:18.921Z,53439.47
2022-09-13T07:19:47.357Z,53423.56
2022-09-13T07:22:16.947Z,53447.41
2022-09-13T07:24:45.443Z,53419.59
2022-09-13T07:27:15.034Z,53395.72
2022-09-13T07:29:44.516Z,53411.63
2022-09-13T07:32:13.248Z,53429.53
2022-09-13T07:34:43.430Z,53423.56
2022-09-13T07:37:12.487Z,53383.78
2022-09-13T07:39:41.006Z,53389.75
2022-09-13T07:42:09.521Z,53381.81
2022-09-13T07:44:39.876Z,53391.75
2022-09-13T07:47:08.371Z,53415.59
2022-09-13T07:49:36.863Z,53379.81
2022-09-13T07:52:06.848Z,53389.75
2022-09-13T07:54:36.889Z,53379.81
2022-09-13T07:57:06.239Z,53395.72
2022-09-13T07:59:35.263Z,53375.84
2022-09-13T08:02:03.953Z,53359.94
2022-09-13T08:04:36.276Z,53316.22
2022-09-13T08:07:08.711Z,53361.94
2022-09-13T08:09:37.214Z,53348.00
2022-09-13T08:12:06.336Z,53357.94
2022-09-13T08:14:34.891Z,53353.97
2022-09-13T08:17:03.625Z,53328.13
2022-09-13T08:19:32.106Z,53310.25
2022-09-13T08:22:01.065Z,53340.06
2022-09-13T08:24:31.126Z,53322.16
2022-09-13T08:26:59.868Z,53316.22
2022-09-13T08:29:28.414Z,53330.13
2022-09-13T08:31:56.825Z,53324.16
2022-09-13T08:34:25.749Z,53308.25
2022-09-13T08:36:54.121Z,53340.06
2022-09-13T08:39:22.949Z,53330.13
2022-09-13T08:42:16.970Z,53312.22
2022-09-13T08:44:49.036Z,53284.41
2022-09-13T08:47:35.418Z,53302.28
2022-09-13T08:50:13.473Z,53312.22
2022-09-13T08:52:54.867Z,53320.19
2022-09-13T08:55:28.972Z,53284.41
2022-09-13T08:58:08.197Z,53288.38
2022-09-13T09:00:40.892Z,53300.31
2022-09-13T09:03:27.818Z,53324.16
2022-09-13T09:05:56.392Z,53320.19
2022-09-13T09:08:33.983Z,53304.28
2022-09-13T09:11:09.101Z,53292.34
2022-09-13T09:13:48.758Z,53284.41
2022-09-13T09:16:29.559Z,53306.28
2022-09-13T09:19:01.163Z,53288.38
2022-09-13T09:21:30.527Z,53302.28
2022-09-13T09:23:59.957Z,53294.34
2022-09-13T09:26:31.346Z,53272.47
2022-09-13T09:29:06.723Z,53302.28
2022-09-13T09:31:44.306Z,53308.25
2022-09-13T09:34:22.892Z,53246.63
2022-09-13T09:37:02.268Z,53304.28
2022-09-13T09:39:39.085Z,53296.31
2022-09-13T09:42:14.444Z,53252.59
2022-09-13T09:44:49.017Z,53272.47
2022-09-13T09:47:20.408Z,53270.47
2022-09-13T09:50:11.048Z,53266.50
2022-09-13T09:52:44.968Z,53266.50
2022-09-13T09:55:28.829Z,53280.41
2022-09-13T09:57:59.982Z,53264.53
2022-09-13T10:00:31.466Z,53232.72
2022-09-13T10:03:03.592Z,53256.56
2022-09-13T10:05:33.566Z,53254.59
2022-09-13T10:08:04.079Z,53258.56
2022-09-13T10:10:38.522Z,53248.63
2022-09-13T10:13:14.278Z,53252.59
2022-09-13T10:15:55.363Z,53264.53
2022-09-13T10:18:43.563Z,53232.72
2022-09-13T10:21:26.842Z,53244.63
2022-09-13T10:24:19.234Z,53258.56
2022-09-13T10:26:48.764Z,53242.66
2022-09-13T10:29:19.006Z,53270.47
2022-09-13T10:31:53.523Z,53254.59
2022-09-13T10:34:26.160Z,53246.63
2022-09-13T10:36:59.097Z,53224.75
2022-09-13T10:39:31.276Z,53260.53
2022-09-13T10:42:02.376Z,53244.63
2022-09-13T10:44:34.231Z,53246.63
2022-09-13T10:47:07.948Z,53240.66
2022-09-13T10:49:48.981Z,53248.63
2022-09-13T10:52:35.904Z,53238.69
2022-09-13T10:55:26.736Z,53238.69
2022-09-13T10:57:57.518Z,53280.41
2022-09-13T11:00:36.846Z,53224.75
2022-09-13T11:03:26.603Z,53284.41
2022-09-13T11:06:04.362Z,53248.63
2022-09-13T11:08:43.623Z,53284.41
2022-09-13T11:11:21.613Z,53228.75
2022-09-13T11:14:08.150Z,53242.66
2022-09-13T11:16:51.023Z,53246.63
2022-09-13T11:19:53.021Z,53226.75
2022-09-13T11:22:40.822Z,53181.03
2022-09-13T11:25:19.126Z,53238.69
2022-09-13T11:27:58.973Z,53224.75
2022-09-13T11:30:32.593Z,53232.72
2022-09-13T11:33:34.033Z,53202.91
2022-09-13T11:36:34.955Z,53218.81
2022-09-13T11:39:14.730Z,53224.75
2022-09-13T11:41:52.183Z,53244.63
2022-09-13T11:44:33.281Z,53210.84
2022-09-13T11:47:11.714Z,53192.94
2022-09-13T11:49:58.850Z,53198.91
2022-09-13T11:52:43.341Z,53192.94
2022-09-13T11:55:18.947Z,53202.91
2022-09-13T11:57:51.137Z,53192.94
2022-09-13T12:00:25.816Z,53238.69
2022-09-13T12:03:02.988Z,53200.91
2022-09-13T12:05:36.055Z,53206.88
2022-09-13T12:08:13.065Z,53224.75
2022-09-13T12:10:47.374Z,53202.91
2022-09-13T12:13:22.666Z,53240.66
2022-09-13T12:15:55.124Z,53200.91
2022-09-13T12:18:27.530Z,53200.91
2022-09-13T12:21:00.345Z,53212.84
2022-09-13T12:23:33.754Z,53206.88
2022-09-13T12:26:06.751Z,53183.00
2022-09-13T12:28:41.813Z,53200.91
2022-09-13T12:31:16.201Z,53202.91
2022-09-13T12:33:45.072Z,53187.00
2022-09-13T12:36:48.452Z,53187.00
2022-09-13T12:39:46.263Z,53208.84
2022-09-13T12:42:35.882Z,53163.13
2022-09-13T12:45:27.908Z,53187.00
2022-09-13T12:48:15.190Z,53171.09
2022-09-13T12:50:57.640Z,53188.97
2022-09-13T12:53:44.500Z,53200.91
2022-09-13T12:56:34.250Z,53165.13
2022-09-13T12:59:36.042Z,53238.69
2022-09-13T13:02:23.668Z,53212.84
2022-09-13T13:04:57.272Z,53183.00
2022-09-13T13:07:26.057Z,53198.91
2022-09-13T13:09:56.663Z,53185.00
2022-09-13T13:12:33.039Z,53159.16
2022-09-13T13:15:03.118Z,53149.22
2022-09-13T13:17:47.303Z,53137.28
2022-09-13T13:20:41.995Z,53163.13
2022-09-13T13:23:20.048Z,53163.13
2022-09-13T13:26:08.939Z,53161.16
2022-09-13T13:29:16.615Z,53177.06
2022-09-13T13:31:47.349Z,53161.16
2022-09-13T13:34:43.115Z,53177.06
2022-09-13T13:37:38.302Z,53171.09
2022-09-13T13:40:29.666Z,53190.97
2022-09-13T13:43:38.248Z,53202.91
2022-09-13T13:46:29.825Z,53200.91
2022-09-13T13:49:40.351Z,53175.06
2022-09-13T13:52:37.021Z,53159.16
2022-09-13T13:55:31.464Z,53161.16
2022-09-13T13:58:03.568Z,53200.91
2022-09-13T14:00:34.911Z,53165.13
2022-09-13T14:03:19.027Z,53167.13
2022-09-13T14:05:54.624Z,53169.09
2022-09-13T14:08:37.190Z,53167.13
2022-09-13T14:11:17.949Z,53173.06
2022-09-13T14:13:56.405Z,53175.06
2022-09-13T14:16:38.342Z,53188.97
2022-09-13T14:19:28.508Z,53183.00
2022-09-13T14:22:17.822Z,53177.06
2022-09-13T14:24:48.926Z,53157.19
2022-09-13T14:27:21.566Z,53190.97
2022-09-13T14:29:52.382Z,53185.00
2022-09-13T14:32:23.179Z,53192.94
2022-09-13T14:34:59.295Z,53185.00
2022-09-13T14:37:31.231Z,53224.75
2022-09-13T14:40:03.060Z,53198.91
2022-09-13T14:42:42.470Z,53190.97
2022-09-13T14:45:15.241Z,53204.88
2022-09-13T14:47:53.461Z,53220.78
2022-09-13T14:50:27.921Z,53244.63
2022-09-13T14:52:59.302Z,53147.22
2022-09-13T14:55:31.572Z,53208.84
2022-09-13T14:58:04.493Z,53188.97
2022-09-13T15:00:36.984Z,53204.88
2022-09-13T15:03:13.917Z,53161.16
2022-09-13T15:05:51.720Z,53177.06
2022-09-13T15:08:46.629Z,53181.03
2022-09-13T15:11:18.716Z,53159.16
2022-09-13T15:13:47.219Z,53185.00
2022-09-13T15:16:31.800Z,53200.91
2022-09-13T15:19:29.938Z,53181.03
2022-09-13T15:22:10.838Z,53218.81
2022-09-13T15:24:43.632Z,53200.91
2022-09-13T15:27:29.863Z,53224.75
2022-09-13T15:30:00.325Z,53194.94
2022-09-13T15:32:35.160Z,53187.00
2022-09-13T15:35:04.640Z,53192.94
2022-09-13T15:37:37.721Z,53187.00
2022-09-13T15:40:24.580Z,53218.81
2022-09-13T15:42:54.001Z,53198.91
2022-09-13T15:45:24.093Z,53208.84
2022-09-13T15:47:53.990Z,53204.88
2022-09-13T15:50:26.996Z,53216.81
2022-09-13T15:52:57.346Z,53216.81
2022-09-13T15:55:27.100Z,53206.88
2022-09-13T15:57:56.422Z,53214.81
2022-09-13T16:00:27.931Z,53220.78
2022-09-13T16:03:00.133Z,53212.84
2022-09-13T16:05:29.942Z,53220.78
2022-09-13T16:08:00.463Z,53190.97
2022-09-13T16:10:30.227Z,53208.84
2022-09-13T16:12:58.642Z,53216.81
2022-09-13T16:15:28.352Z,53202.91
2022-09-13T16:17:56.745Z,53232.72
2022-09-13T16:20:25.599Z,53224.75
2022-09-13T16:22:54.038Z,53206.88
2022-09-13T16:25:23.977Z,53220.78
2022-09-13T16:27:53.553Z,53212.84
2022-09-13T16:30:23.113Z,53234.69
2022-09-13T16:32:51.656Z,53238.69
2022-09-13T16:35:20.159Z,53214.81
2022-09-13T16:37:51.519Z,53216.81
2022-09-13T16:40:21.468Z,53228.75
2022-09-13T16:42:51.633Z,53244.63
2022-09-13T16:45:20.050Z,53220.78
2022-09-13T16:47:48.531Z,53240.66
2022-09-13T16:50:19.512Z,53232.72
2022-09-13T16:52:47.945Z,53248.63
2022-09-13T16:55:16.438Z,53242.66
2022-09-13T16:57:50.360Z,53246.63
2022-09-13T17:00:21.224Z,53238.69
2022-09-13T17:02:49.916Z,53228.75
2022-09-13T17:05:18.540Z,53258.56
2022-09-13T17:07:47.004Z,53262.53
2022-09-13T17:10:15.619Z,53262.53
2022-09-13T17:12:44.034Z,53244.63
2022-09-13T17:15:13.172Z,53268.50
2022-09-13T17:17:42.971Z,53236.69
2022-09-13T17:20:14.363Z,53264.53
2022-09-13T17:22:42.945Z,53252.59
2022-09-13T17:25:12.048Z,53272.47
2022-09-13T17:27:40.470Z,53214.81
2022-09-13T17:30:11.428Z,53248.63
2022-09-13T17:32:39.994Z,53246.63
2022-09-13T17:35:12.087Z,53268.50
2022-09-13T17:37:40.557Z,53260.53
2022-09-13T17:40:09.861Z,53284.41
2022-09-13T17:42:38.938Z,53274.47
2022-09-13T17:45:07.978Z,53256.56
2022-09-13T17:47:36.370Z,53262.53
2022-09-13T17:50:05.074Z,53268.50
2022-09-13T17:52:35.335Z,53310.25
2022-09-13T17:55:03.914Z,53272.47
2022-09-13T17:57:32.755Z,53250.59
2022-09-13T18:00:01.189Z,53260.53
2022-09-13T18:02:29.705Z,53274.47
2022-09-13T18:04:59.613Z,53272.47
2022-09-13T18:07:31.015Z,53274.47
2022-09-13T18:10:00.975Z,53304.28
2022-09-13T18:12:29.430Z,53266.50
2022-09-13T18:14:58.014Z,53264.53
2022-09-13T18:17:26.497Z,53288.38
2022-09-13T18:19:54.894Z,53322.16
2022-09-13T18:22:23.500Z,53320.19
2022-09-13T18:24:51.938Z,53328.13
2022-09-13T18:27:21.916Z,53363.91
2022-09-13T18:29:50.386Z,53371.88
2022-09-13T18:32:18.896Z,53371.88
2022-09-13T18:34:47.812Z,53399.69
2022-09-13T18:37:16.182Z,53417.59
2022-09-13T18:39:44.870Z,53443.44
2022-09-13T18:42:13.466Z,53447.41
2022-09-13T18:44:43.717Z,53471.28
2022-09-13T18:47:13.578Z,53439.47
2022-09-13T18:49:42.576Z,53515.00
2022-09-13T18:52:13.452Z,53528.94
2022-09-13T18:54:43.760Z,53517.00
2022-09-13T18:57:13.359Z,53515.00
2022-09-13T18:59:44.719Z,53590.56
2022-09-13T19:02:15.474Z,53606.47
2022-09-13T19:04:47.398Z,53620.38
2022-09-13T19:07:17.157Z,53658.16
2022-09-13T19:09:46.399Z,53680.03
2022-09-13T19:12:15.959Z,53703.88
2022-09-13T19:14:47.023Z,53709.84
2022-09-13T19:17:17.135Z,53741.66
2022-09-13T19:19:47.856Z,53753.59
2022-09-13T19:22:17.167Z,53741.66
2022-09-13T19:24:48.646Z,53717.78
2022-09-13T19:27:17.618Z,53658.16
2022-09-13T19:29:48.430Z,53610.44
2022-09-13T19:32:17.557Z,53515.00
2022-09-13T19:34:46.805Z,53507.06
2022-09-13T19:37:15.607Z,53463.31
2022-09-13T19:39:44.439Z,53417.59
2022-09-13T19:42:13.165Z,53411.63
2022-09-13T19:44:41.757Z,53375.84
2022-09-13T19:50:00.528Z,53387.78
2022-09-13T19:52:29.210Z,53367.91
2022-09-13T19:54:58.808Z,53367.91
2022-09-13T19:57:27.423Z,53389.75
2022-09-13T19:59:55.937Z,53328.13
2022-09-13T20:02:26.020Z,53375.84
2022-09-13T20:04:54.602Z,53379.81
2022-09-13T20:07:23.152Z,53379.81
2022-09-13T20:09:51.825Z,53389.75
2022-09-13T20:12:22.061Z,53367.91
2022-09-13T20:14:50.635Z,53377.84
2022-09-13T20:17:19.149Z,53399.69
2022-09-13T20:19:50.342Z,53405.66
2022-09-13T20:22:19.139Z,53381.81
2022-09-13T20:24:47.629Z,53423.56
2022-09-13T20:27:16.227Z,53395.72
2022-09-13T20:29:44.823Z,53403.69
2022-09-13T20:32:13.349Z,53401.69
2022-09-13T20:34:41.953Z,53405.66
2022-09-13T20:37:12.576Z,53413.63
2022-09-13T20:39:41.220Z,53405.66
2022-09-13T20:42:09.786Z,53419.59
2022-09-13T20:44:40.421Z,53421.56
2022-09-13T20:47:09.053Z,53423.56
2022-09-13T20:49:40.715Z,53447.41
2022-09-13T20:52:11.334Z,53441.44
2022-09-13T20:54:40.976Z,53449.41
2022-09-13T20:57:10.532Z,53443.44
2022-09-13T20:59:39.072Z,53437.47
2022-09-13T21:02:08.150Z,53431.50
2022-09-13T21:04:36.939Z,53445.44
2022-09-13T21:07:23.332Z,53411.63
2022-09-13T21:09:53.331Z,53431.50
2022-09-13T21:12:22.066Z,53431.50
2022-09-13T21:14:51.003Z,53443.44
2022-09-13T21:17:20.290Z,53413.63
2022-09-13T21:19:48.904Z,53417.59
2022-09-13T21:22:17.292Z,53399.69
2022-09-13T21:24:46.819Z,53407.66
2022-09-13T21:27:17.445Z,53387.78
2022-09-13T21:29:45.870Z,53395.72
2022-09-13T21:32:14.310Z,53421.56
2022-09-13T21:34:43.465Z,53407.66
2022-09-13T21:37:13.055Z,53399.69
2022-09-13T21:39:41.508Z,53407.66
2022-09-13T21:42:10.177Z,53391.75
2022-09-13T21:44:40.405Z,53393.75
2022-09-13T21:47:09.058Z,53381.81
2022-09-13T21:49:37.944Z,53411.63
2022-09-13T21:52:06.528Z,53421.56
2022-09-13T21:54:35.697Z,53397.72
2022-09-13T21:57:04.142Z,53379.81
2022-09-13T21:59:33.955Z,53383.78
2022-09-13T22:02:03.841Z,53389.75
2022-09-13T22:04:33.180Z,53415.59
2022-09-13T22:07:01.601Z,53387.78
2022-09-13T22:09:31.293Z,53435.47
2022-09-13T22:12:00.930Z,53409.63
2022-09-13T22:14:29.318Z,53433.50
2022-09-13T22:16:57.779Z,53455.38
2022-09-13T22:19:30.663Z,53399.69
2022-09-13T22:22:00.546Z,53427.53
2022-09-13T22:24:32.213Z,53455.38
2022-09-13T22:27:01.344Z,53463.31
2022-09-13T22:29:29.999Z,53449.41
2022-09-13T22:31:58.615Z,53443.44
2022-09-13T22:34:31.028Z,53435.47
2022-09-13T22:37:09.020Z,53453.38
2022-09-13T22:39:38.718Z,53461.31
2022-09-13T22:42:07.157Z,53447.41
2022-09-13T22:44:35.530Z,53441.44
2022-09-13T22:47:04.062Z,53437.47
2022-09-13T22:49:33.876Z,53415.59
2022-09-13T22:52:03.074Z,53447.41
2022-09-13T22:54:31.677Z,53449.41
2022-09-13T22:57:01.062Z,53431.50
2022-09-13T22:59:29.497Z,53457.34
2022-09-13T23:02:00.668Z,53467.28
2022-09-13T23:04:29.653Z,53477.22
2022-09-13T23:06:59.465Z,53455.38
2022-09-13T23:09:28.497Z,53469.28
2022-09-13T23:11:59.171Z,53469.28
2022-09-13T23:14:27.589Z,53437.47
2022-09-13T23:16:56.065Z,53475.25
2022-09-13T23:19:25.810Z,53513.03
2022-09-13T23:21:54.623Z,53487.19
2022-09-13T23:24:24.871Z,53520.97
2022-09-13T23:26:56.154Z,53459.34
2022-09-13T23:29:24.571Z,53522.97
2022-09-13T23:31:53.084Z,53546.81
2022-09-13T23:34:23.943Z,53566.69
2022-09-13T23:36:52.539Z,53554.78
2022-09-13T23:39:22.322Z,53610.44
2022-09-13T23:41:52.299Z,53590.56
2022-09-13T23:44:20.960Z,53584.59
2022-09-13T23:46:49.265Z,53590.56
2022-09-13T23:49:18.212Z,53616.41
2022-09-13T23:51:46.726Z,53654.19
2022-09-13T23:54:15.659Z,53711.84
2022-09-13T23:56:44.553Z,53686.00
2022-09-13T23:59:15.049Z,53711.84
